Nellysford, Virginia
Current Conditions -  °F | °C
As of 6:15 PM on Saturday 25 Oct 2014 (Local Time) from KW13 Reporting Station
Clear Clear  
Wind Chill: 65°   Ceiling: Unl
Heat Index: 65°   Visibility: 10mi
Dew Point: 40°   Wind: 5mph
Humidity: 40%   Direction: 210°SSW
Pressure: 29.81"   Gusts: NA
Location:  37.91°N, 78.87°W
Report Text: KW13 252215Z AUTO 21004KT 10SM CLR 18/05 A2981 RMK AO1 T01830045
Loading
Personal Weather Stations






























Interactive Weather Map
Tropical Storm Tracking
New forecast layout! Learn more

10-Day Weather Forecast

Advertisements
Track Severe Weather on mobile